sensor_id;sensor_type;location;lat;lon;timestamp;P1;durP1;ratioP1;P2;durP2;ratioP2
19543;SDS011;9917;51.256;7.152;2023-03-21T00:01:12;13.47;;;4.20;;
19543;SDS011;9917;51.256;7.152;2023-03-21T00:03:38;8.03;;;3.80;;
19543;SDS011;9917;51.256;7.152;2023-03-21T00:06:04;12.95;;;4.45;;
19543;SDS011;9917;51.256;7.152;2023-03-21T00:08:31;11.67;;;4.57;;
19543;SDS011;9917;51.256;7.152;2023-03-21T00:10:57;9.27;;;4.10;;
19543;SDS011;9917;51.256;7.152;2023-03-21T00:13:24;10.70;;;3.87;;
19543;SDS011;9917;51.256;7.152;2023-03-21T00:15:51;13.98;;;4.97;;
19543;SDS011;9917;51.256;7.152;2023-03-21T00:18:18;13.33;;;4.50;;
19543;SDS011;9917;51.256;7.152;2023-03-21T00:20:43;10.80;;;4.35;;
19543;SDS011;9917;51.256;7.152;2023-03-21T00:23:09;13.00;;;5.33;;
19543;SDS011;9917;51.256;7.152;2023-03-21T00:25:35;10.53;;;4.03;;
19543;SDS011;9917;51.256;7.152;2023-03-21T00:28:00;7.80;;;4.00;;
19543;SDS011;9917;51.256;7.152;2023-03-21T00:30:26;12.87;;;4.37;;
19543;SDS011;9917;51.256;7.152;2023-03-21T00:32:52;11.77;;;4.30;;
19543;SDS011;9917;51.256;7.152;2023-03-21T00:35:19;12.07;;;4.47;;
19543;SDS011;9917;51.256;7.152;2023-03-21T00:37:45;13.67;;;4.87;;
19543;SDS011;9917;51.256;7.152;2023-03-21T00:40:11;13.43;;;5.17;;
19543;SDS011;9917;51.256;7.152;2023-03-21T00:42:37;10.43;;;4.47;;
19543;SDS011;9917;51.256;7.152;2023-03-21T00:45:03;10.43;;;4.03;;
19543;SDS011;9917;51.256;7.152;2023-03-21T00:47:29;9.87;;;4.47;;
19543;SDS011;9917;51.256;7.152;2023-03-21T00:49:55;10.30;;;3.80;;
19543;SDS011;9917;51.256;7.152;2023-03-21T00:52:22;11.30;;;4.20;;
19543;SDS011;9917;51.256;7.152;2023-03-21T00:54:48;11.07;;;4.00;;
19543;SDS011;9917;51.256;7.152;2023-03-21T00:57:13;10.23;;;4.30;;
19543;SDS011;9917;51.256;7.152;2023-03-21T00:59:39;8.13;;;4.57;;
19543;SDS011;9917;51.256;7.152;2023-03-21T01:02:05;7.73;;;4.30;;
19543;SDS011;9917;51.256;7.152;2023-03-21T01:04:31;13.30;;;4.30;;
19543;SDS011;9917;51.256;7.152;2023-03-21T01:06:57;7.57;;;4.50;;
19543;SDS011;9917;51.256;7.152;2023-03-21T01:09:24;9.60;;;3.90;;
19543;SDS011;9917;51.256;7.152;2023-03-21T01:11:50;8.83;;;4.40;;
19543;SDS011;9917;51.256;7.152;2023-03-21T01:14:17;11.50;;;5.00;;
19543;SDS011;9917;51.256;7.152;2023-03-21T01:16:44;10.30;;;4.53;;
19543;SDS011;9917;51.256;7.152;2023-03-21T01:19:10;11.83;;;5.20;;
19543;SDS011;9917;51.256;7.152;2023-03-21T01:21:37;12.43;;;4.53;;
19543;SDS011;9917;51.256;7.152;2023-03-21T01:24:03;10.68;;;4.32;;
19543;SDS011;9917;51.256;7.152;2023-03-21T01:26:31;13.60;;;4.80;;
19543;SDS011;9917;51.256;7.152;2023-03-21T01:28:57;10.15;;;4.88;;
19543;SDS011;9917;51.256;7.152;2023-03-21T01:31:23;19.70;;;4.83;;
19543;SDS011;9917;51.256;7.152;2023-03-21T01:33:49;12.25;;;5.03;;
19543;SDS011;9917;51.256;7.152;2023-03-21T01:36:16;11.88;;;4.78;;
19543;SDS011;9917;51.256;7.152;2023-03-21T01:38:43;8.40;;;4.45;;
19543;SDS011;9917;51.256;7.152;2023-03-21T01:41:09;12.55;;;5.60;;
19543;SDS011;9917;51.256;7.152;2023-03-21T01:43:45;14.98;;;5.28;;
19543;SDS011;9917;51.256;7.152;2023-03-21T01:46:23;13.90;;;5.57;;
19543;SDS011;9917;51.256;7.152;2023-03-21T01:48:58;14.97;;;4.90;;
19543;SDS011;9917;51.256;7.152;2023-03-21T01:51:26;13.50;;;5.47;;
19543;SDS011;9917;51.256;7.152;2023-03-21T01:53:53;15.57;;;5.05;;
19543;SDS011;9917;51.256;7.152;2023-03-21T01:56:21;13.43;;;4.93;;
19543;SDS011;9917;51.256;7.152;2023-03-21T01:58:51;12.27;;;5.32;;
19543;SDS011;9917;51.256;7.152;2023-03-21T02:01:19;13.00;;;5.50;;
19543;SDS011;9917;51.256;7.152;2023-03-21T02:03:45;15.00;;;5.43;;
19543;SDS011;9917;51.256;7.152;2023-03-21T02:06:12;15.77;;;5.50;;
19543;SDS011;9917;51.256;7.152;2023-03-21T02:08:41;16.47;;;6.67;;
19543;SDS011;9917;51.256;7.152;2023-03-21T02:11:07;16.00;;;6.28;;
19543;SDS011;9917;51.256;7.152;2023-03-21T02:13:33;13.37;;;5.40;;
19543;SDS011;9917;51.256;7.152;2023-03-21T02:16:01;13.83;;;6.27;;
19543;SDS011;9917;51.256;7.152;2023-03-21T02:18:36;17.80;;;6.07;;
19543;SDS011;9917;51.256;7.152;2023-03-21T02:21:12;16.17;;;5.65;;
19543;SDS011;9917;51.256;7.152;2023-03-21T02:24:11;14.10;;;6.13;;
19543;SDS011;9917;51.256;7.152;2023-03-21T02:27:11;12.37;;;5.60;;
19543;SDS011;9917;51.256;7.152;2023-03-21T02:33:01;14.93;;;6.40;;
19543;SDS011;9917;51.256;7.152;2023-03-21T02:35:46;12.23;;;5.95;;
19543;SDS011;9917;51.256;7.152;2023-03-21T02:38:24;14.65;;;5.72;;
19543;SDS011;9917;51.256;7.152;2023-03-21T02:40:58;16.07;;;5.90;;
19543;SDS011;9917;51.256;7.152;2023-03-21T02:43:30;13.55;;;5.53;;
19543;SDS011;9917;51.256;7.152;2023-03-21T02:46:01;18.23;;;6.03;;
19543;SDS011;9917;51.256;7.152;2023-03-21T02:48:33;16.20;;;6.20;;
19543;SDS011;9917;51.256;7.152;2023-03-21T02:51:01;11.03;;;6.00;;
19543;SDS011;9917;51.256;7.152;2023-03-21T02:53:32;11.00;;;5.97;;
19543;SDS011;9917;51.256;7.152;2023-03-21T02:56:01;15.57;;;6.50;;
19543;SDS011;9917;51.256;7.152;2023-03-21T02:58:27;13.23;;;7.00;;
19543;SDS011;9917;51.256;7.152;2023-03-21T03:00:56;15.10;;;7.00;;
19543;SDS011;9917;51.256;7.152;2023-03-21T03:03:22;16.83;;;7.10;;
19543;SDS011;9917;51.256;7.152;2023-03-21T03:05:48;14.90;;;7.13;;
19543;SDS011;9917;51.256;7.152;2023-03-21T03:08:20;15.30;;;7.00;;
19543;SDS011;9917;51.256;7.152;2023-03-21T03:11:00;14.23;;;6.70;;
19543;SDS011;9917;51.256;7.152;2023-03-21T03:13:35;12.87;;;6.80;;
19543;SDS011;9917;51.256;7.152;2023-03-21T03:16:12;18.13;;;7.00;;
19543;SDS011;9917;51.256;7.152;2023-03-21T03:18:47;13.77;;;6.67;;
19543;SDS011;9917;51.256;7.152;2023-03-21T03:21:17;17.67;;;6.80;;
19543;SDS011;9917;51.256;7.152;2023-03-21T03:23:49;17.67;;;6.63;;
19543;SDS011;9917;51.256;7.152;2023-03-21T03:26:20;15.80;;;6.93;;
19543;SDS011;9917;51.256;7.152;2023-03-21T03:28:50;18.57;;;7.07;;
19543;SDS011;9917;51.256;7.152;2023-03-21T03:31:18;16.13;;;7.27;;
19543;SDS011;9917;51.256;7.152;2023-03-21T03:33:48;20.00;;;7.20;;
19543;SDS011;9917;51.256;7.152;2023-03-21T03:36:16;14.50;;;6.57;;
19543;SDS011;9917;51.256;7.152;2023-03-21T03:38:44;17.13;;;7.80;;
19543;SDS011;9917;51.256;7.152;2023-03-21T03:41:14;17.77;;;7.00;;
19543;SDS011;9917;51.256;7.152;2023-03-21T03:43:47;17.87;;;7.03;;
19543;SDS011;9917;51.256;7.152;2023-03-21T03:46:17;12.43;;;6.60;;
19543;SDS011;9917;51.256;7.152;2023-03-21T03:48:47;16.33;;;7.27;;
19543;SDS011;9917;51.256;7.152;2023-03-21T03:51:17;16.80;;;7.73;;
19543;SDS011;9917;51.256;7.152;2023-03-21T03:53:48;18.33;;;7.30;;
19543;SDS011;9917;51.256;7.152;2023-03-21T03:56:21;17.50;;;6.87;;
19543;SDS011;9917;51.256;7.152;2023-03-21T03:58:47;19.43;;;6.93;;
19543;SDS011;9917;51.256;7.152;2023-03-21T04:01:13;13.20;;;6.20;;
19543;SDS011;9917;51.256;7.152;2023-03-21T04:03:39;13.33;;;6.63;;
19543;SDS011;9917;51.256;7.152;2023-03-21T04:06:07;15.40;;;6.83;;
19543;SDS011;9917;51.256;7.152;2023-03-21T04:08:32;16.63;;;6.70;;
19543;SDS011;9917;51.256;7.152;2023-03-21T04:11:00;13.73;;;6.60;;
19543;SDS011;9917;51.256;7.152;2023-03-21T04:13:27;10.60;;;6.00;;
19543;SDS011;9917;51.256;7.152;2023-03-21T04:15:52;16.60;;;6.27;;
19543;SDS011;9917;51.256;7.152;2023-03-21T04:18:18;13.50;;;6.30;;
19543;SDS011;9917;51.256;7.152;2023-03-21T04:20:45;16.20;;;6.07;;
19543;SDS011;9917;51.256;7.152;2023-03-21T04:23:11;13.13;;;6.03;;
19543;SDS011;9917;51.256;7.152;2023-03-21T04:25:36;11.87;;;5.87;;
19543;SDS011;9917;51.256;7.152;2023-03-21T04:28:02;14.50;;;5.73;;
19543;SDS011;9917;51.256;7.152;2023-03-21T04:30:30;18.07;;;6.20;;
19543;SDS011;9917;51.256;7.152;2023-03-21T04:32:55;11.77;;;5.30;;
19543;SDS011;9917;51.256;7.152;2023-03-21T04:35:21;12.13;;;5.07;;
19543;SDS011;9917;51.256;7.152;2023-03-21T04:37:48;11.17;;;5.20;;
19543;SDS011;9917;51.256;7.152;2023-03-21T04:40:14;18.63;;;5.57;;
19543;SDS011;9917;51.256;7.152;2023-03-21T04:42:40;13.37;;;5.27;;
19543;SDS011;9917;51.256;7.152;2023-03-21T04:45:06;9.70;;;5.00;;
19543;SDS011;9917;51.256;7.152;2023-03-21T04:47:34;13.20;;;5.43;;
19543;SDS011;9917;51.256;7.152;2023-03-21T04:50:00;15.50;;;5.90;;
19543;SDS011;9917;51.256;7.152;2023-03-21T04:52:25;14.20;;;5.47;;
19543;SDS011;9917;51.256;7.152;2023-03-21T04:54:51;12.07;;;5.13;;
19543;SDS011;9917;51.256;7.152;2023-03-21T04:57:17;13.20;;;5.67;;
19543;SDS011;9917;51.256;7.152;2023-03-21T04:59:43;12.43;;;5.10;;
19543;SDS011;9917;51.256;7.152;2023-03-21T05:02:08;9.77;;;5.07;;
19543;SDS011;9917;51.256;7.152;2023-03-21T05:04:35;14.33;;;5.00;;
19543;SDS011;9917;51.256;7.152;2023-03-21T05:07:01;17.50;;;4.93;;
19543;SDS011;9917;51.256;7.152;2023-03-21T05:09:27;15.40;;;4.93;;
19543;SDS011;9917;51.256;7.152;2023-03-21T05:11:52;10.90;;;4.80;;
19543;SDS011;9917;51.256;7.152;2023-03-21T05:14:19;12.90;;;5.53;;
19543;SDS011;9917;51.256;7.152;2023-03-21T05:16:47;18.00;;;5.07;;
19543;SDS011;9917;51.256;7.152;2023-03-21T05:19:13;12.43;;;4.57;;
19543;SDS011;9917;51.256;7.152;2023-03-21T05:21:41;14.53;;;5.33;;
19543;SDS011;9917;51.256;7.152;2023-03-21T05:24:06;11.93;;;5.43;;
19543;SDS011;9917;51.256;7.152;2023-03-21T05:26:32;9.27;;;5.10;;
19543;SDS011;9917;51.256;7.152;2023-03-21T05:28:58;13.57;;;5.20;;
19543;SDS011;9917;51.256;7.152;2023-03-21T05:31:24;13.83;;;4.17;;
19543;SDS011;9917;51.256;7.152;2023-03-21T05:33:49;11.40;;;4.60;;
19543;SDS011;9917;51.256;7.152;2023-03-21T05:36:15;14.93;;;5.20;;
19543;SDS011;9917;51.256;7.152;2023-03-21T05:38:43;9.73;;;4.33;;
19543;SDS011;9917;51.256;7.152;2023-03-21T05:41:08;14.67;;;4.57;;
19543;SDS011;9917;51.256;7.152;2023-03-21T05:43:34;9.20;;;4.43;;
19543;SDS011;9917;51.256;7.152;2023-03-21T05:46:00;9.93;;;4.53;;
19543;SDS011;9917;51.256;7.152;2023-03-21T05:48:26;12.10;;;4.80;;
19543;SDS011;9917;51.256;7.152;2023-03-21T05:50:52;12.23;;;4.63;;
19543;SDS011;9917;51.256;7.152;2023-03-21T05:53:17;13.23;;;4.00;;
19543;SDS011;9917;51.256;7.152;2023-03-21T05:55:44;10.40;;;3.87;;
19543;SDS011;9917;51.256;7.152;2023-03-21T05:58:10;12.37;;;4.60;;
19543;SDS011;9917;51.256;7.152;2023-03-21T06:00:36;12.53;;;4.27;;
19543;SDS011;9917;51.256;7.152;2023-03-21T06:03:02;11.07;;;4.40;;
19543;SDS011;9917;51.256;7.152;2023-03-21T06:05:27;10.37;;;4.17;;
19543;SDS011;9917;51.256;7.152;2023-03-21T06:07:53;9.70;;;4.43;;
19543;SDS011;9917;51.256;7.152;2023-03-21T06:10:19;12.83;;;5.00;;
19543;SDS011;9917;51.256;7.152;2023-03-21T06:12:46;11.43;;;4.23;;
19543;SDS011;9917;51.256;7.152;2023-03-21T06:15:12;10.93;;;4.63;;
19543;SDS011;9917;51.256;7.152;2023-03-21T06:17:38;10.43;;;4.07;;
19543;SDS011;9917;51.256;7.152;2023-03-21T06:20:04;14.27;;;4.17;;
19543;SDS011;9917;51.256;7.152;2023-03-21T06:22:31;14.63;;;4.80;;
19543;SDS011;9917;51.256;7.152;2023-03-21T06:24:57;9.23;;;4.10;;
19543;SDS011;9917;51.256;7.152;2023-03-21T06:27:23;11.03;;;4.07;;
19543;SDS011;9917;51.256;7.152;2023-03-21T06:29:50;13.97;;;5.00;;
19543;SDS011;9917;51.256;7.152;2023-03-21T06:32:16;9.00;;;4.40;;
19543;SDS011;9917;51.256;7.152;2023-03-21T06:34:42;8.93;;;3.90;;
19543;SDS011;9917;51.256;7.152;2023-03-21T06:37:07;15.70;;;4.37;;
19543;SDS011;9917;51.256;7.152;2023-03-21T06:39:33;12.83;;;4.50;;
19543;SDS011;9917;51.256;7.152;2023-03-21T06:41:59;8.60;;;4.47;;
19543;SDS011;9917;51.256;7.152;2023-03-21T06:44:25;12.77;;;5.30;;
19543;SDS011;9917;51.256;7.152;2023-03-21T06:46:53;12.30;;;4.97;;
19543;SDS011;9917;51.256;7.152;2023-03-21T06:49:20;11.53;;;5.00;;
19543;SDS011;9917;51.256;7.152;2023-03-21T06:51:46;10.03;;;4.97;;
19543;SDS011;9917;51.256;7.152;2023-03-21T06:54:12;9.43;;;4.60;;
19543;SDS011;9917;51.256;7.152;2023-03-21T06:56:38;11.47;;;5.03;;
19543;SDS011;9917;51.256;7.152;2023-03-21T06:59:03;9.30;;;4.80;;
19543;SDS011;9917;51.256;7.152;2023-03-21T07:01:29;13.60;;;6.03;;
19543;SDS011;9917;51.256;7.152;2023-03-21T07:03:56;13.73;;;5.03;;
19543;SDS011;9917;51.256;7.152;2023-03-21T07:06:22;11.27;;;5.10;;
19543;SDS011;9917;51.256;7.152;2023-03-21T07:08:48;13.13;;;4.87;;
19543;SDS011;9917;51.256;7.152;2023-03-21T07:11:14;10.43;;;5.00;;
19543;SDS011;9917;51.256;7.152;2023-03-21T07:13:40;14.40;;;4.77;;
19543;SDS011;9917;51.256;7.152;2023-03-21T07:16:09;11.70;;;4.87;;
19543;SDS011;9917;51.256;7.152;2023-03-21T07:18:34;14.00;;;4.90;;
19543;SDS011;9917;51.256;7.152;2023-03-21T07:21:02;15.33;;;5.67;;
19543;SDS011;9917;51.256;7.152;2023-03-21T07:23:28;10.40;;;5.37;;
19543;SDS011;9917;51.256;7.152;2023-03-21T07:25:54;15.73;;;5.47;;
19543;SDS011;9917;51.256;7.152;2023-03-21T07:28:22;12.17;;;5.47;;
19543;SDS011;9917;51.256;7.152;2023-03-21T07:30:50;15.90;;;5.37;;
19543;SDS011;9917;51.256;7.152;2023-03-21T07:33:17;12.40;;;5.47;;
19543;SDS011;9917;51.256;7.152;2023-03-21T07:35:46;12.67;;;4.80;;
19543;SDS011;9917;51.256;7.152;2023-03-21T07:38:14;8.93;;;5.53;;
19543;SDS011;9917;51.256;7.152;2023-03-21T07:40:40;12.70;;;6.03;;
19543;SDS011;9917;51.256;7.152;2023-03-21T07:43:06;19.97;;;7.70;;
19543;SDS011;9917;51.256;7.152;2023-03-21T07:45:31;14.47;;;6.37;;
19543;SDS011;9917;51.256;7.152;2023-03-21T07:47:57;12.13;;;5.00;;
19543;SDS011;9917;51.256;7.152;2023-03-21T07:50:23;11.30;;;5.50;;
19543;SDS011;9917;51.256;7.152;2023-03-21T07:52:49;12.73;;;5.20;;
19543;SDS011;9917;51.256;7.152;2023-03-21T07:55:16;16.17;;;5.57;;
19543;SDS011;9917;51.256;7.152;2023-03-21T07:57:42;14.17;;;5.60;;
19543;SDS011;9917;51.256;7.152;2023-03-21T08:00:08;15.68;;;6.13;;
19543;SDS011;9917;51.256;7.152;2023-03-21T08:02:34;22.73;;;9.50;;
19543;SDS011;9917;51.256;7.152;2023-03-21T08:05:00;15.98;;;7.10;;
19543;SDS011;9917;51.256;7.152;2023-03-21T08:07:26;13.43;;;6.70;;
19543;SDS011;9917;51.256;7.152;2023-03-21T08:09:51;17.13;;;7.03;;
19543;SDS011;9917;51.256;7.152;2023-03-21T08:12:18;15.13;;;6.10;;
19543;SDS011;9917;51.256;7.152;2023-03-21T08:14:44;18.10;;;7.47;;
19543;SDS011;9917;51.256;7.152;2023-03-21T08:17:10;13.10;;;6.15;;
19543;SDS011;9917;51.256;7.152;2023-03-21T08:19:36;14.25;;;6.53;;
19543;SDS011;9917;51.256;7.152;2023-03-21T08:22:01;16.08;;;5.97;;
19543;SDS011;9917;51.256;7.152;2023-03-21T08:24:27;15.50;;;6.43;;
19543;SDS011;9917;51.256;7.152;2023-03-21T08:26:53;10.70;;;5.63;;
19543;SDS011;9917;51.256;7.152;2023-03-21T08:29:20;11.87;;;6.00;;
19543;SDS011;9917;51.256;7.152;2023-03-21T08:31:46;14.00;;;6.30;;
19543;SDS011;9917;51.256;7.152;2023-03-21T08:34:12;10.00;;;6.30;;
19543;SDS011;9917;51.256;7.152;2023-03-21T08:36:38;19.98;;;6.90;;
19543;SDS011;9917;51.256;7.152;2023-03-21T08:39:04;17.83;;;7.33;;
19543;SDS011;9917;51.256;7.152;2023-03-21T08:41:30;14.60;;;7.47;;
19543;SDS011;9917;51.256;7.152;2023-03-21T08:43:56;13.93;;;7.70;;
19543;SDS011;9917;51.256;7.152;2023-03-21T08:46:23;14.97;;;7.33;;
19543;SDS011;9917;51.256;7.152;2023-03-21T08:48:49;17.80;;;6.80;;
19543;SDS011;9917;51.256;7.152;2023-03-21T08:51:15;18.20;;;5.30;;
19543;SDS011;9917;51.256;7.152;2023-03-21T08:53:40;12.13;;;4.80;;
19543;SDS011;9917;51.256;7.152;2023-03-21T08:56:06;13.83;;;5.70;;
19543;SDS011;9917;51.256;7.152;2023-03-21T08:58:33;10.77;;;5.07;;
19543;SDS011;9917;51.256;7.152;2023-03-21T09:00:58;16.00;;;5.65;;
19543;SDS011;9917;51.256;7.152;2023-03-21T09:03:25;12.50;;;5.53;;
19543;SDS011;9917;51.256;7.152;2023-03-21T09:05:51;13.90;;;5.40;;
19543;SDS011;9917;51.256;7.152;2023-03-21T09:08:17;13.00;;;4.83;;
19543;SDS011;9917;51.256;7.152;2023-03-21T09:10:43;13.03;;;5.43;;
19543;SDS011;9917;51.256;7.152;2023-03-21T09:13:09;12.07;;;6.07;;
19543;SDS011;9917;51.256;7.152;2023-03-21T09:15:34;8.80;;;4.90;;
19543;SDS011;9917;51.256;7.152;2023-03-21T09:18:00;11.67;;;5.30;;
19543;SDS011;9917;51.256;7.152;2023-03-21T09:20:27;13.00;;;4.80;;
19543;SDS011;9917;51.256;7.152;2023-03-21T09:22:53;11.13;;;4.70;;
19543;SDS011;9917;51.256;7.152;2023-03-21T09:25:18;11.02;;;5.00;;
19543;SDS011;9917;51.256;7.152;2023-03-21T09:27:44;12.17;;;4.90;;
19543;SDS011;9917;51.256;7.152;2023-03-21T09:30:11;13.23;;;5.23;;
19543;SDS011;9917;51.256;7.152;2023-03-21T09:32:37;15.27;;;5.17;;
19543;SDS011;9917;51.256;7.152;2023-03-21T09:35:03;9.20;;;4.90;;
19543;SDS011;9917;51.256;7.152;2023-03-21T09:37:31;10.20;;;4.57;;
19543;SDS011;9917;51.256;7.152;2023-03-21T09:39:57;8.50;;;4.20;;
19543;SDS011;9917;51.256;7.152;2023-03-21T09:42:26;11.10;;;4.50;;
19543;SDS011;9917;51.256;7.152;2023-03-21T09:45:00;10.83;;;4.40;;
19543;SDS011;9917;51.256;7.152;2023-03-21T09:47:32;9.73;;;4.30;;
19543;SDS011;9917;51.256;7.152;2023-03-21T09:50:05;14.43;;;4.63;;
19543;SDS011;9917;51.256;7.152;2023-03-21T09:52:40;8.17;;;4.10;;
19543;SDS011;9917;51.256;7.152;2023-03-21T09:55:12;8.00;;;3.60;;
19543;SDS011;9917;51.256;7.152;2023-03-21T09:57:42;8.27;;;3.33;;
19543;SDS011;9917;51.256;7.152;2023-03-21T10:00:12;13.43;;;3.53;;
19543;SDS011;9917;51.256;7.152;2023-03-21T10:02:44;10.50;;;3.50;;
19543;SDS011;9917;51.256;7.152;2023-03-21T10:05:15;8.53;;;2.87;;
19543;SDS011;9917;51.256;7.152;2023-03-21T10:07:45;9.43;;;3.30;;
19543;SDS011;9917;51.256;7.152;2023-03-21T10:10:18;11.00;;;3.13;;
19543;SDS011;9917;51.256;7.152;2023-03-21T10:12:47;8.23;;;3.43;;
19543;SDS011;9917;51.256;7.152;2023-03-21T10:15:15;7.27;;;3.03;;
19543;SDS011;9917;51.256;7.152;2023-03-21T10:17:44;6.40;;;3.00;;
19543;SDS011;9917;51.256;7.152;2023-03-21T10:20:15;7.67;;;3.07;;
19543;SDS011;9917;51.256;7.152;2023-03-21T10:22:45;7.43;;;3.00;;
19543;SDS011;9917;51.256;7.152;2023-03-21T10:25:14;7.33;;;3.03;;
19543;SDS011;9917;51.256;7.152;2023-03-21T10:27:41;7.17;;;3.00;;
19543;SDS011;9917;51.256;7.152;2023-03-21T10:30:08;8.47;;;3.77;;
19543;SDS011;9917;51.256;7.152;2023-03-21T10:32:41;5.65;;;2.72;;
19543;SDS011;9917;51.256;7.152;2023-03-21T10:35:08;6.97;;;3.30;;
19543;SDS011;9917;51.256;7.152;2023-03-21T10:37:37;9.35;;;3.30;;
19543;SDS011;9917;51.256;7.152;2023-03-21T10:40:04;8.33;;;2.93;;
19543;SDS011;9917;51.256;7.152;2023-03-21T10:42:39;8.40;;;3.20;;
19543;SDS011;9917;51.256;7.152;2023-03-21T10:45:05;8.38;;;3.10;;
19543;SDS011;9917;51.256;7.152;2023-03-21T10:47:40;9.35;;;3.42;;
19543;SDS011;9917;51.256;7.152;2023-03-21T10:50:07;8.37;;;3.30;;
19543;SDS011;9917;51.256;7.152;2023-03-21T10:52:37;9.93;;;3.30;;
19543;SDS011;9917;51.256;7.152;2023-03-21T10:55:14;7.87;;;3.03;;
19543;SDS011;9917;51.256;7.152;2023-03-21T10:57:43;8.95;;;3.03;;
19543;SDS011;9917;51.256;7.152;2023-03-21T11:00:11;9.33;;;3.30;;
19543;SDS011;9917;51.256;7.152;2023-03-21T11:02:45;12.32;;;3.58;;
19543;SDS011;9917;51.256;7.152;2023-03-21T11:05:16;7.30;;;2.90;;
19543;SDS011;9917;51.256;7.152;2023-03-21T11:07:45;9.23;;;2.80;;
19543;SDS011;9917;51.256;7.152;2023-03-21T11:10:14;9.13;;;3.90;;
19543;SDS011;9917;51.256;7.152;2023-03-21T11:12:50;6.60;;;2.85;;
19543;SDS011;9917;51.256;7.152;2023-03-21T11:15:25;9.02;;;2.90;;
19543;SDS011;9917;51.256;7.152;2023-03-21T11:17:53;8.82;;;3.47;;
19543;SDS011;9917;51.256;7.152;2023-03-21T11:20:19;5.75;;;3.25;;
19543;SDS011;9917;51.256;7.152;2023-03-21T11:22:45;9.52;;;3.33;;
19543;SDS011;9917;51.256;7.152;2023-03-21T11:25:19;10.20;;;3.50;;
19543;SDS011;9917;51.256;7.152;2023-03-21T11:27:50;6.30;;;3.17;;
19543;SDS011;9917;51.256;7.152;2023-03-21T11:30:19;8.90;;;3.08;;
19543;SDS011;9917;51.256;7.152;2023-03-21T11:32:49;9.48;;;3.10;;
19543;SDS011;9917;51.256;7.152;2023-03-21T11:35:19;9.30;;;3.30;;
19543;SDS011;9917;51.256;7.152;2023-03-21T11:37:49;7.30;;;3.33;;
19543;SDS011;9917;51.256;7.152;2023-03-21T11:40:20;6.23;;;2.90;;
19543;SDS011;9917;51.256;7.152;2023-03-21T11:42:48;6.72;;;2.40;;
19543;SDS011;9917;51.256;7.152;2023-03-21T11:45:16;5.40;;;2.85;;
19543;SDS011;9917;51.256;7.152;2023-03-21T11:47:43;7.85;;;3.00;;
19543;SDS011;9917;51.256;7.152;2023-03-21T11:50:13;6.07;;;3.20;;
19543;SDS011;9917;51.256;7.152;2023-03-21T11:52:42;6.18;;;3.00;;
19543;SDS011;9917;51.256;7.152;2023-03-21T11:55:23;8.00;;;2.97;;
19543;SDS011;9917;51.256;7.152;2023-03-21T11:58:03;4.45;;;2.45;;
19543;SDS011;9917;51.256;7.152;2023-03-21T12:00:38;5.40;;;2.83;;
19543;SDS011;9917;51.256;7.152;2023-03-21T12:03:15;7.03;;;2.85;;
19543;SDS011;9917;51.256;7.152;2023-03-21T12:05:57;6.97;;;3.20;;
19543;SDS011;9917;51.256;7.152;2023-03-21T12:08:29;6.57;;;2.65;;
19543;SDS011;9917;51.256;7.152;2023-03-21T12:11:06;6.97;;;3.00;;
19543;SDS011;9917;51.256;7.152;2023-03-21T12:13:42;9.60;;;3.47;;
19543;SDS011;9917;51.256;7.152;2023-03-21T12:16:20;7.30;;;2.97;;
19543;SDS011;9917;51.256;7.152;2023-03-21T12:18:57;10.93;;;3.60;;
19543;SDS011;9917;51.256;7.152;2023-03-21T12:21:30;8.05;;;3.30;;
19543;SDS011;9917;51.256;7.152;2023-03-21T12:24:02;6.00;;;2.93;;
19543;SDS011;9917;51.256;7.152;2023-03-21T12:26:37;6.73;;;3.00;;
19543;SDS011;9917;51.256;7.152;2023-03-21T12:29:11;8.18;;;3.17;;
19543;SDS011;9917;51.256;7.152;2023-03-21T12:32:03;8.93;;;3.30;;
19543;SDS011;9917;51.256;7.152;2023-03-21T12:34:47;6.60;;;3.22;;
19543;SDS011;9917;51.256;7.152;2023-03-21T12:37:40;6.30;;;2.87;;
19543;SDS011;9917;51.256;7.152;2023-03-21T12:40:20;5.90;;;2.90;;
19543;SDS011;9917;51.256;7.152;2023-03-21T12:43:02;5.23;;;2.90;;
19543;SDS011;9917;51.256;7.152;2023-03-21T12:45:44;8.93;;;3.22;;
19543;SDS011;9917;51.256;7.152;2023-03-21T12:48:15;6.37;;;3.07;;
19543;SDS011;9917;51.256;7.152;2023-03-21T12:50:45;6.95;;;2.90;;
19543;SDS011;9917;51.256;7.152;2023-03-21T12:53:18;7.82;;;3.80;;
19543;SDS011;9917;51.256;7.152;2023-03-21T12:55:51;6.78;;;3.30;;
19543;SDS011;9917;51.256;7.152;2023-03-21T12:58:22;7.80;;;3.23;;
19543;SDS011;9917;51.256;7.152;2023-03-21T13:00:52;11.70;;;3.60;;
19543;SDS011;9917;51.256;7.152;2023-03-21T13:03:20;7.23;;;2.77;;
19543;SDS011;9917;51.256;7.152;2023-03-21T13:05:49;9.17;;;3.67;;
19543;SDS011;9917;51.256;7.152;2023-03-21T13:08:19;6.63;;;3.40;;
19543;SDS011;9917;51.256;7.152;2023-03-21T13:10:49;9.20;;;3.57;;
19543;SDS011;9917;51.256;7.152;2023-03-21T13:13:17;6.83;;;3.50;;
19543;SDS011;9917;51.256;7.152;2023-03-21T13:15:59;7.77;;;3.67;;
19543;SDS011;9917;51.256;7.152;2023-03-21T13:18:38;9.60;;;3.20;;
19543;SDS011;9917;51.256;7.152;2023-03-21T13:21:16;6.33;;;3.20;;
19543;SDS011;9917;51.256;7.152;2023-03-21T13:23:59;6.30;;;2.73;;
19543;SDS011;9917;51.256;7.152;2023-03-21T13:26:35;4.18;;;2.92;;
19543;SDS011;9917;51.256;7.152;2023-03-21T13:29:12;5.65;;;3.15;;
19543;SDS011;9917;51.256;7.152;2023-03-21T13:31:42;5.47;;;2.97;;
19543;SDS011;9917;51.256;7.152;2023-03-21T13:34:09;8.15;;;3.30;;
19543;SDS011;9917;51.256;7.152;2023-03-21T13:36:35;7.55;;;3.42;;
19543;SDS011;9917;51.256;7.152;2023-03-21T13:39:02;7.33;;;3.20;;
19543;SDS011;9917;51.256;7.152;2023-03-21T13:41:30;5.27;;;3.23;;
19543;SDS011;9917;51.256;7.152;2023-03-21T13:44:05;8.73;;;3.00;;
19543;SDS011;9917;51.256;7.152;2023-03-21T13:46:43;5.32;;;3.30;;
19543;SDS011;9917;51.256;7.152;2023-03-21T13:49:24;5.85;;;2.70;;
19543;SDS011;9917;51.256;7.152;2023-03-21T13:51:53;4.93;;;3.10;;
19543;SDS011;9917;51.256;7.152;2023-03-21T13:54:21;8.23;;;3.03;;
19543;SDS011;9917;51.256;7.152;2023-03-21T13:56:55;5.07;;;3.13;;
19543;SDS011;9917;51.256;7.152;2023-03-21T13:59:35;5.43;;;2.83;;
19543;SDS011;9917;51.256;7.152;2023-03-21T14:02:23;6.55;;;2.55;;
19543;SDS011;9917;51.256;7.152;2023-03-21T14:04:54;7.82;;;3.15;;
19543;SDS011;9917;51.256;7.152;2023-03-21T14:07:24;5.72;;;3.03;;
19543;SDS011;9917;51.256;7.152;2023-03-21T14:09:52;5.10;;;2.78;;
19543;SDS011;9917;51.256;7.152;2023-03-21T14:12:21;8.30;;;3.22;;
19543;SDS011;9917;51.256;7.152;2023-03-21T14:14:51;4.88;;;2.53;;
19543;SDS011;9917;51.256;7.152;2023-03-21T14:17:23;5.70;;;3.07;;
19543;SDS011;9917;51.256;7.152;2023-03-21T14:19:51;7.47;;;2.92;;
19543;SDS011;9917;51.256;7.152;2023-03-21T14:22:17;4.25;;;2.83;;
19543;SDS011;9917;51.256;7.152;2023-03-21T14:24:46;6.90;;;2.83;;
19543;SDS011;9917;51.256;7.152;2023-03-21T14:27:12;6.78;;;2.78;;
19543;SDS011;9917;51.256;7.152;2023-03-21T14:29:38;7.00;;;2.97;;
19543;SDS011;9917;51.256;7.152;2023-03-21T14:32:04;6.43;;;3.20;;
19543;SDS011;9917;51.256;7.152;2023-03-21T14:34:31;4.13;;;2.90;;
19543;SDS011;9917;51.256;7.152;2023-03-21T14:36:59;6.53;;;2.55;;
19543;SDS011;9917;51.256;7.152;2023-03-21T14:39:27;5.20;;;3.03;;
19543;SDS011;9917;51.256;7.152;2023-03-21T14:41:55;6.32;;;2.85;;
19543;SDS011;9917;51.256;7.152;2023-03-21T14:44:25;5.85;;;2.97;;
19543;SDS011;9917;51.256;7.152;2023-03-21T14:46:58;6.80;;;3.38;;
19543;SDS011;9917;51.256;7.152;2023-03-21T14:49:26;4.93;;;2.97;;
19543;SDS011;9917;51.256;7.152;2023-03-21T14:51:55;5.47;;;2.70;;
19543;SDS011;9917;51.256;7.152;2023-03-21T14:54:22;5.03;;;3.00;;
19543;SDS011;9917;51.256;7.152;2023-03-21T14:56:50;7.88;;;2.80;;
19543;SDS011;9917;51.256;7.152;2023-03-21T14:59:18;7.50;;;2.92;;
19543;SDS011;9917;51.256;7.152;2023-03-21T15:01:46;4.88;;;2.42;;
19543;SDS011;9917;51.256;7.152;2023-03-21T15:04:13;6.72;;;2.85;;
19543;SDS011;9917;51.256;7.152;2023-03-21T15:06:50;6.68;;;2.75;;